createdAt,value
2019-03-01T01:03:50.911Z,49.71
2019-03-01T01:08:52.193Z,49.81
2019-03-01T01:13:53.461Z,49.89
2019-03-01T01:18:54.763Z,50.63
2019-03-01T01:23:56.074Z,50.89
2019-03-01T01:28:57.385Z,50.75
2019-03-01T02:30:59.383Z,50.99
2019-03-01T02:36:00.682Z,51.52
2019-03-01T02:41:01.969Z,51.54
2019-03-01T02:46:04.006Z,51.66
2019-03-01T02:51:05.327Z,50.97
2019-03-01T02:56:07.370Z,51.17
2019-03-01T04:04:31.245Z,58.92
2019-03-01T04:09:33.265Z,58.81
2019-03-01T04:14:34.562Z,58.21
2019-03-01T04:19:35.881Z,59.32
2019-03-01T04:24:37.164Z,60.19
2019-03-01T04:29:38.474Z,59.18
2019-03-01T05:31:41.604Z,58.04
2019-03-01T05:36:46.089Z,59.31
2019-03-01T05:41:47.458Z,62.65
2019-03-01T05:46:48.760Z,64.44
2019-03-01T05:51:50.217Z,67.22
2019-03-01T05:56:51.512Z,65.16
2019-03-01T07:05:16.546Z,65.87
2019-03-01T07:10:17.879Z,66.48
2019-03-01T07:15:19.266Z,66.42
2019-03-01T07:20:20.552Z,66.31
2019-03-01T07:25:21.906Z,67.98
2019-03-01T07:30:23.204Z,67.77
2019-03-01T08:32:27.453Z,72.46
2019-03-01T08:37:27.664Z,72.82
2019-03-01T08:42:28.935Z,72.75
2019-03-01T08:47:30.225Z,72.88
2019-03-01T08:52:31.509Z,72.34
2019-03-01T08:57:32.786Z,72.60
2019-03-01T10:05:55.380Z,72.61
2019-03-01T10:10:56.674Z,72.12
2019-03-01T10:15:58.701Z,72.40
2019-03-01T10:20:59.981Z,72.30
2019-03-01T10:26:01.282Z,72.38
2019-03-01T11:34:22.629Z,71.08
2019-03-01T11:39:23.929Z,72.04
2019-03-01T11:44:25.298Z,71.92
2019-03-01T11:49:26.578Z,70.95
2019-03-01T11:54:27.989Z,71.43
2019-03-01T11:59:29.293Z,70.78
2019-03-01T13:01:35.218Z,70.01
2019-03-01T13:06:39.914Z,69.82
2019-03-01T13:11:48.619Z,69.19
2019-03-01T13:16:52.330Z,68.90
2019-03-01T13:21:53.586Z,69.18
2019-03-01T13:26:54.871Z,68.84
2019-03-01T14:35:20.466Z,68.93
2019-03-01T14:40:22.642Z,69.27
2019-03-01T14:45:28.462Z,68.86
2019-03-01T14:50:33.307Z,68.73
2019-03-01T14:55:48.056Z,69.25
2019-03-01T16:04:11.935Z,71.03
2019-03-01T16:09:13.283Z,71.62
2019-03-01T16:14:14.566Z,73.11
2019-03-01T16:19:15.888Z,73.80
2019-03-01T16:24:17.216Z,73.89
2019-03-01T16:29:19.462Z,75.64
2019-03-01T16:34:20.848Z,75.28
2019-03-01T16:39:23.818Z,75.48
2019-03-01T16:44:24.669Z,74.96
2019-03-01T16:49:27.224Z,75.98
2019-03-01T16:54:27.420Z,74.31
2019-03-01T16:59:35.731Z,72.78
2019-03-01T17:04:39.405Z,74.26
2019-03-01T17:09:51.334Z,72.93
2019-03-01T17:14:50.645Z,73.79
2019-03-01T17:19:53.735Z,73.00
2019-03-01T17:25:02.293Z,73.26
2019-03-01T17:30:03.779Z,71.78
2019-03-01T17:35:06.384Z,71.97
2019-03-01T17:40:11.689Z,71.16
2019-03-01T17:45:20.990Z,72.96
2019-03-01T17:50:20.066Z,72.29
2019-03-01T17:55:25.949Z,73.91
2019-03-01T18:00:29.150Z,71.36
2019-03-01T18:05:30.514Z,72.48
2019-03-01T18:10:32.941Z,73.12
2019-03-01T18:15:33.958Z,73.48
2019-03-01T18:20:37.657Z,72.52
2019-03-01T18:25:36.611Z,72.96
2019-03-01T18:30:38.315Z,72.07
2019-03-01T18:35:39.678Z,71.38
2019-03-01T18:40:41.742Z,71.29
2019-03-01T18:45:43.822Z,71.92
2019-03-01T18:50:47.302Z,71.47
2019-03-01T18:55:49.626Z,71.84
2019-03-01T19:00:51.164Z,72.53
2019-03-01T19:05:53.494Z,72.43
2019-03-01T19:10:55.337Z,72.05
2019-03-01T19:15:59.641Z,71.68
2019-03-01T19:21:13.957Z,71.37
2019-03-01T19:26:19.187Z,71.90
2019-03-01T19:31:30.430Z,72.01
2019-03-01T19:36:35.591Z,71.10
2019-03-01T19:41:37.958Z,71.81
2019-03-01T19:46:47.544Z,71.15
2019-03-01T19:51:50.467Z,70.85
2019-03-01T19:56:52.046Z,70.97
2019-03-01T20:02:03.870Z,70.23
2019-03-01T20:07:06.768Z,70.45
2019-03-01T20:12:08.742Z,69.99
2019-03-01T20:17:12.840Z,69.05
2019-03-01T20:22:15.506Z,69.69
2019-03-01T20:27:17.159Z,70.27
2019-03-01T20:32:19.251Z,70.77
2019-03-01T20:37:20.734Z,71.06
2019-03-01T20:42:24.392Z,71.92
2019-03-01T20:47:23.482Z,72.45
2019-03-01T20:52:24.898Z,71.94
2019-03-01T20:57:27.126Z,74.12
2019-03-01T21:02:29.464Z,72.70
2019-03-01T21:07:31.620Z,72.16
2019-03-01T21:12:33.522Z,72.58
2019-03-01T21:17:34.326Z,73.33
2019-03-01T21:22:36.671Z,74.02
2019-03-01T21:27:37.145Z,73.91
2019-03-01T21:32:40.465Z,73.74
2019-03-01T21:37:41.930Z,74.37
2019-03-01T21:42:43.275Z,74.82
2019-03-01T21:47:47.715Z,74.76
2019-03-01T21:52:46.030Z,74.01
2019-03-01T21:57:47.350Z,76.82
2019-03-01T22:02:52.812Z,76.30
2019-03-01T22:07:50.815Z,75.75
2019-03-01T22:12:52.211Z,74.59
2019-03-01T22:17:53.650Z,74.63
2019-03-01T22:22:54.980Z,74.54
2019-03-01T22:27:57.709Z,74.17
2019-03-01T22:32:58.285Z,74.12
2019-03-01T22:38:04.758Z,73.28
2019-03-01T22:43:02.912Z,73.62
2019-03-01T22:48:04.936Z,73.04
2019-03-01T22:53:06.666Z,73.08
2019-03-01T22:58:09.266Z,73.09
2019-03-01T23:34:51.414Z,72.74
2019-03-01T23:39:52.973Z,72.57
2019-03-01T23:44:54.372Z,72.11
2019-03-01T23:49:58.993Z,71.76
2019-03-01T23:54:57.006Z,72.12
2019-03-01T23:59:58.749Z,71.30
